Flight Track Log - Related Links

Times and Time Zones

All times are in EDT time to prevent confusion due to time zone crossing. See the ASQ5740 flight status page for this flight to view local times or setup timezone preferences in your user account.

Time Position Orientation Groundspeed Altitude Reporting Facility
EDT Latitude Longitude Course Direction KTS MPH feet Rate Location/Type
Sun 08:10:54 AM 38.9667 -77.5333 293° West 200 230 2,500  Level Potomac TRACON
Sun 08:11:43 AM 39.0167 -77.5667 333° Northwest 263 303 4,100 2,348 Climbing Potomac TRACON
Sun 08:12:49 AM 39.1000 -77.6167 335° Northwest 285 328 7,000 2,474 Climbing Potomac TRACON
Sun 08:13:00 AM 39.2944 -77.5437 344° North  Level FlightAware Approximate
Sun 08:13:37 AM 39.1650 -77.6342 348° North 296 341 8,800  Level Washington Center
Sun 08:14:00 AM 39.3855 -77.5779 344° North  Level FlightAware Approximate
Sun 08:14:38 AM 39.2478 -77.6633 345° North 301 346 11,100  Level Washington Center
Sun 08:15:00 AM 39.4592 -77.6199 288° West  Level FlightAware Approximate
Sun 08:15:40 AM 39.3283 -77.7086 337° Northwest 301 346 13,000  Level Washington Center
Sun 08:16:00 AM 39.4898 -77.7361 293° West  Level FlightAware Approximate
Sun 08:16:40 AM 39.4106 -77.7700 330° Northwest 320 368 14,300  Level Washington Center
Sun 08:17:38 AM 39.4950 -77.8317 331° Northwest 332 382 15,800 1,525 Climbing Washington Center
Sun 08:18:38 AM 39.5578 -77.9278 310° West 347 399 17,300 1,455 Climbing Washington Center
Sun 08:20:56 AM 39.6375 -78.1867 292° West 344 396 20,600 1,364 Climbing Cleveland Center
Sun 08:21:56 AM 39.6692 -78.3014 290° West 344 396 21,800 900 Climbing Cleveland Center
Sun 08:22:56 AM 39.7069 -78.4217 292° West 349 402 22,400 650 Climbing Cleveland Center
Sun 08:23:56 AM 39.7425 -78.5475 290° West 356 410 23,100 850 Climbing Cleveland Center
Sun 08:24:56 AM 39.7781 -78.6653 291° West 376 433 24,100 1,050 Climbing Cleveland Center
Sun 08:25:56 AM 39.8322 -78.7961 298° West 376 433 25,200 1,050 Climbing Cleveland Center
Sun 08:26:56 AM 39.8881 -78.9136 302° West 376 433 26,200 1,000 Climbing Cleveland Center
Sun 08:27:56 AM 39.9483 -79.0342 303° West 388 447 27,200 800 Climbing Cleveland Center
Sun 08:28:56 AM 40.0061 -79.1547 302° West 388 447 27,800 500 Climbing Cleveland Center
Sun 08:29:56 AM 40.0597 -79.2783 300° West 393 452 28,200 500 Climbing Cleveland Center
Sun 08:30:56 AM 40.1214 -79.4019 303° West 398 458 28,800 550 Climbing Cleveland Center
Sun 08:31:56 AM 40.1811 -79.5286 302° West 398 458 29,300 500 Climbing Cleveland Center
Sun 08:32:56 AM 40.2428 -79.6583 302° West 403 464 29,800 350 Climbing Cleveland Center
Sun 08:33:56 AM 40.3019 -79.7883 301° West 408 470 30,000 100 Climbing Cleveland Center
Sun 08:34:56 AM 40.3633 -79.9183 302° West 418 481 30,000  Level Cleveland Center
Sun 08:35:56 AM 40.4225 -80.0567 299° West 426 490 30,000  Level Cleveland Center
Sun 08:36:56 AM 40.4814 -80.1872 301° West 426 490 30,000  Level Cleveland Center
Sun 08:37:56 AM 40.5422 -80.3153 302° West 421 484 30,000  Level Cleveland Center
Sun 08:38:56 AM 40.5986 -80.4408 301° West 409 471 30,000  Level Cleveland Center
Sun 08:39:56 AM 40.6572 -80.5694 301° West 404 465 30,000  Level Cleveland Center
Sun 08:40:56 AM 40.7217 -80.7036 302° West 394 453 30,000  Level Cleveland Center
Sun 08:41:56 AM 40.7839 -80.8272 304° West 400 460 30,000  Level Cleveland Center
Sun 08:42:56 AM 40.8442 -80.9481 303° West 400 460 30,000  Level Cleveland Center
Sun 08:43:56 AM 40.9042 -81.0747 302° West 400 460 30,000  Level Cleveland Center
Sun 08:44:56 AM 40.9639 -81.1964 303° West 400 460 30,000  Level Cleveland Center
Sun 08:45:56 AM 41.0236 -81.3181 303° West 400 460 30,000  Level Cleveland Center
Sun 08:46:56 AM 41.0833 -81.4397 303° West 400 460 30,000  Level Cleveland Center
Sun 08:47:56 AM 41.1469 -81.5564 306° West 393 452 30,000  Level Cleveland Center
Sun 08:48:56 AM 41.2022 -81.6814 300° West 399 459 30,000  Level Cleveland Center
Sun 08:49:56 AM 41.2614 -81.8014 303° West 394 453 30,000  Level Cleveland Center
Sun 08:50:56 AM 41.3225 -81.9214 304° West 394 453 30,000  Level Cleveland Center
Sun 08:51:56 AM 41.3772 -82.0442 301° West 394 453 30,000 -1,300 Level Cleveland Center
Sun 08:52:56 AM 41.4322 -82.1589 303° West 394 453 27,400 -2,950 Descending Cleveland Center
Sun 08:53:56 AM 41.4908 -82.2825 302° West 400 460 24,100 -3,250 Descending Cleveland Center
Sun 08:54:56 AM 41.5533 -82.4172 302° West 395 455 20,900 -3,124 Descending Cleveland Center
Sun 08:55:57 AM 41.6097 -82.5328 303° West 388 447 17,800 -2,970 Descending Cleveland Center
Sun 08:56:35 AM 41.6419 -82.6031 302° West 360 414 16,000 -2,914 Descending Cleveland Center
Sun 08:57:42 AM 41.7003 -82.7244 303° West 334 384 12,700 -1,875 Descending Cleveland Center
Sun 08:58:43 AM 41.7589 -82.8183 310° West 320 368 12,000 -344 Descending Cleveland Center
Sun 08:59:44 AM 41.8239 -82.8986 317° Northwest 325 374 12,000  Level Cleveland Center
Sun 09:00:45 AM 41.8950 -82.9878 317° Northwest 331 381 12,000  Level Cleveland Center
Sun 09:01:46 AM 41.9686 -83.0658 322° Northwest 334 384 12,000  Level Cleveland Center
Sun 09:02:47 AM 42.0314 -83.1467 316° Northwest 277 319 12,000  Level Cleveland Center
Sun 09:03:48 AM 42.0839 -83.2158 316° Northwest 264 304 12,000 -787 Level Cleveland Center
Sun 09:04:49 AM 42.1589 -83.2275 353° North 304 350 10,400 -1,967 Descending Cleveland Center
Sun 09:05:50 AM 42.2350 -83.1772 26° Northeast 309 356 8,000 -1,922 Descending Cleveland Center
Sun 09:06:57 AM 42.3131 -83.1300 24° Northeast 287 330 6,300 -1,587 Descending Cleveland Center
Sun 09:07:51 AM 42.3731 -83.1550 343° North 260 299 4,800 -1,241 Descending Cleveland Center
Sun 09:08:53 AM 42.3483 -83.2381 248° West 238 274 3,900 -1,033 Descending Cleveland Center
Sun 09:09:53 AM 42.2972 -83.2753 208° Southwest 183 211 2,700 -1,091 Descending Cleveland Center
Sun 09:10:54 AM 42.2611 -83.3075 213° Southwest 130 150 1,700 -836 Descending Cleveland Center
Sun 09:11:55 AM 42.2272 -83.3286 205° Southwest 132 152 1,000 -689 Descending Cleveland Center

Login

Don't have an account? Register now (free) for customized features, flight alerts, and more!